sensor_id;sensor_type;location;lat;lon;timestamp;temperature;humidity
17452;DHT22;8843;48.838;9.324;2022-10-22T00:01:47;15.80;92.60
17452;DHT22;8843;48.838;9.324;2022-10-22T00:04:14;15.80;92.70
17452;DHT22;8843;48.838;9.324;2022-10-22T00:06:41;15.80;92.70
17452;DHT22;8843;48.838;9.324;2022-10-22T00:09:11;15.80;92.60
17452;DHT22;8843;48.838;9.324;2022-10-22T00:11:38;15.80;92.60
17452;DHT22;8843;48.838;9.324;2022-10-22T00:14:05;15.80;92.60
17452;DHT22;8843;48.838;9.324;2022-10-22T00:16:32;15.80;92.60
17452;DHT22;8843;48.838;9.324;2022-10-22T00:18:59;15.80;92.60
17452;DHT22;8843;48.838;9.324;2022-10-22T00:21:26;15.80;92.50
17452;DHT22;8843;48.838;9.324;2022-10-22T00:23:53;15.80;92.50
17452;DHT22;8843;48.838;9.324;2022-10-22T00:26:22;15.80;92.70
17452;DHT22;8843;48.838;9.324;2022-10-22T00:28:49;15.80;92.50
17452;DHT22;8843;48.838;9.324;2022-10-22T00:31:15;15.80;92.50
17452;DHT22;8843;48.838;9.324;2022-10-22T00:33:45;15.80;92.50
17452;DHT22;8843;48.838;9.324;2022-10-22T00:36:12;15.70;92.60
17452;DHT22;8843;48.838;9.324;2022-10-22T00:38:39;15.80;92.90
17452;DHT22;8843;48.838;9.324;2022-10-22T00:41:06;15.70;92.50
17452;DHT22;8843;48.838;9.324;2022-10-22T00:46:17;15.80;92.50
17452;DHT22;8843;48.838;9.324;2022-10-22T00:48:44;15.80;92.50
17452;DHT22;8843;48.838;9.324;2022-10-22T00:51:11;15.80;92.50
17452;DHT22;8843;48.838;9.324;2022-10-22T00:53:42;15.70;92.50
17452;DHT22;8843;48.838;9.324;2022-10-22T00:56:10;15.70;92.50
17452;DHT22;8843;48.838;9.324;2022-10-22T00:58:40;15.70;92.50
17452;DHT22;8843;48.838;9.324;2022-10-22T01:01:17;15.70;92.50
17452;DHT22;8843;48.838;9.324;2022-10-22T01:03:46;15.70;92.50
17452;DHT22;8843;48.838;9.324;2022-10-22T01:06:19;15.70;92.50
17452;DHT22;8843;48.838;9.324;2022-10-22T01:08:54;15.80;92.50
17452;DHT22;8843;48.838;9.324;2022-10-22T01:11:28;15.70;92.40
17452;DHT22;8843;48.838;9.324;2022-10-22T01:14:09;15.70;92.40
17452;DHT22;8843;48.838;9.324;2022-10-22T01:16:44;15.80;92.40
17452;DHT22;8843;48.838;9.324;2022-10-22T01:19:28;15.70;92.40
17452;DHT22;8843;48.838;9.324;2022-10-22T01:21:59;15.80;92.40
17452;DHT22;8843;48.838;9.324;2022-10-22T01:24:38;15.70;92.70
17452;DHT22;8843;48.838;9.324;2022-10-22T01:27:14;15.70;92.40
17452;DHT22;8843;48.838;9.324;2022-10-22T01:29:47;15.70;92.40
17452;DHT22;8843;48.838;9.324;2022-10-22T01:32:18;15.70;92.30
17452;DHT22;8843;48.838;9.324;2022-10-22T01:34:48;15.70;92.30
17452;DHT22;8843;48.838;9.324;2022-10-22T01:37:17;15.70;92.30
17452;DHT22;8843;48.838;9.324;2022-10-22T01:39:46;15.70;92.30
17452;DHT22;8843;48.838;9.324;2022-10-22T01:42:14;15.70;92.40
17452;DHT22;8843;48.838;9.324;2022-10-22T01:44:41;15.70;92.40
17452;DHT22;8843;48.838;9.324;2022-10-22T01:47:18;15.70;92.40
17452;DHT22;8843;48.838;9.324;2022-10-22T01:50:08;15.70;92.40
17452;DHT22;8843;48.838;9.324;2022-10-22T01:52:54;15.70;92.40
17452;DHT22;8843;48.838;9.324;2022-10-22T01:55:28;15.70;92.40
17452;DHT22;8843;48.838;9.324;2022-10-22T01:58:06;15.70;92.40
17452;DHT22;8843;48.838;9.324;2022-10-22T02:00:38;15.70;92.40
17452;DHT22;8843;48.838;9.324;2022-10-22T02:03:15;15.60;92.40
17452;DHT22;8843;48.838;9.324;2022-10-22T02:05:48;15.60;92.40
17452;DHT22;8843;48.838;9.324;2022-10-22T02:08:18;15.70;92.70
17452;DHT22;8843;48.838;9.324;2022-10-22T02:10:47;15.70;92.40
17452;DHT22;8843;48.838;9.324;2022-10-22T02:13:17;15.70;92.30
17452;DHT22;8843;48.838;9.324;2022-10-22T02:15:48;15.70;92.30
17452;DHT22;8843;48.838;9.324;2022-10-22T02:18:18;15.70;92.30
17452;DHT22;8843;48.838;9.324;2022-10-22T02:20:45;15.70;92.30
17452;DHT22;8843;48.838;9.324;2022-10-22T02:23:12;15.70;92.30
17452;DHT22;8843;48.838;9.324;2022-10-22T02:25:41;15.70;92.30
17452;DHT22;8843;48.838;9.324;2022-10-22T02:28:13;15.70;92.60
17452;DHT22;8843;48.838;9.324;2022-10-22T02:30:46;15.70;92.60
17452;DHT22;8843;48.838;9.324;2022-10-22T02:33:17;15.70;92.30
17452;DHT22;8843;48.838;9.324;2022-10-22T02:35:45;15.70;92.30
17452;DHT22;8843;48.838;9.324;2022-10-22T02:38:14;15.70;92.30
17452;DHT22;8843;48.838;9.324;2022-10-22T02:40:41;15.70;92.20
17452;DHT22;8843;48.838;9.324;2022-10-22T02:43:08;15.70;92.20
17452;DHT22;8843;48.838;9.324;2022-10-22T02:45:36;15.70;92.20
17452;DHT22;8843;48.838;9.324;2022-10-22T02:48:03;15.70;92.20
17452;DHT22;8843;48.838;9.324;2022-10-22T02:50:31;15.70;92.20
17452;DHT22;8843;48.838;9.324;2022-10-22T02:52:58;15.70;92.20
17452;DHT22;8843;48.838;9.324;2022-10-22T02:55:25;15.70;92.20
17452;DHT22;8843;48.838;9.324;2022-10-22T02:57:52;15.70;92.20
17452;DHT22;8843;48.838;9.324;2022-10-22T03:00:19;15.70;92.20
17452;DHT22;8843;48.838;9.324;2022-10-22T03:02:46;15.70;92.20
17452;DHT22;8843;48.838;9.324;2022-10-22T03:05:13;15.70;92.20
17452;DHT22;8843;48.838;9.324;2022-10-22T03:07:41;15.70;92.20
17452;DHT22;8843;48.838;9.324;2022-10-22T03:10:08;15.70;92.20
17452;DHT22;8843;48.838;9.324;2022-10-22T03:12:35;15.70;92.20
17452;DHT22;8843;48.838;9.324;2022-10-22T03:15:03;15.70;92.20
17452;DHT22;8843;48.838;9.324;2022-10-22T03:17:30;15.70;92.20
17452;DHT22;8843;48.838;9.324;2022-10-22T03:19:56;15.70;92.20
17452;DHT22;8843;48.838;9.324;2022-10-22T03:22:25;15.70;92.10
17452;DHT22;8843;48.838;9.324;2022-10-22T03:24:57;15.70;92.10
17452;DHT22;8843;48.838;9.324;2022-10-22T03:27:25;15.70;92.10
17452;DHT22;8843;48.838;9.324;2022-10-22T03:29:56;15.70;92.20
17452;DHT22;8843;48.838;9.324;2022-10-22T03:32:23;15.70;92.50
17452;DHT22;8843;48.838;9.324;2022-10-22T03:34:50;15.70;92.10
17452;DHT22;8843;48.838;9.324;2022-10-22T03:37:17;15.70;92.20
17452;DHT22;8843;48.838;9.324;2022-10-22T03:39:44;15.70;92.40
17452;DHT22;8843;48.838;9.324;2022-10-22T03:42:13;15.70;92.10
17452;DHT22;8843;48.838;9.324;2022-10-22T03:44:41;15.70;92.10
17452;DHT22;8843;48.838;9.324;2022-10-22T03:47:08;15.70;92.10
17452;DHT22;8843;48.838;9.324;2022-10-22T03:49:35;15.70;92.10
17452;DHT22;8843;48.838;9.324;2022-10-22T03:52:05;15.70;92.10
17452;DHT22;8843;48.838;9.324;2022-10-22T03:54:32;15.70;92.10
17452;DHT22;8843;48.838;9.324;2022-10-22T03:56:59;15.70;92.10
17452;DHT22;8843;48.838;9.324;2022-10-22T03:59:27;15.70;92.10
17452;DHT22;8843;48.838;9.324;2022-10-22T04:01:54;15.70;92.10
17452;DHT22;8843;48.838;9.324;2022-10-22T04:04:21;15.70;92.10
17452;DHT22;8843;48.838;9.324;2022-10-22T04:06:48;15.70;92.10
17452;DHT22;8843;48.838;9.324;2022-10-22T04:09:14;15.70;92.10
17452;DHT22;8843;48.838;9.324;2022-10-22T04:11:41;15.70;92.10
17452;DHT22;8843;48.838;9.324;2022-10-22T04:14:09;15.70;92.10
17452;DHT22;8843;48.838;9.324;2022-10-22T04:16:40;15.70;92.10
17452;DHT22;8843;48.838;9.324;2022-10-22T04:19:07;15.70;92.10
17452;DHT22;8843;48.838;9.324;2022-10-22T04:21:34;15.70;92.10
17452;DHT22;8843;48.838;9.324;2022-10-22T04:24:01;15.70;92.00
17452;DHT22;8843;48.838;9.324;2022-10-22T04:26:28;15.70;92.00
17452;DHT22;8843;48.838;9.324;2022-10-22T04:28:55;15.60;92.00
17452;DHT22;8843;48.838;9.324;2022-10-22T04:31:24;15.60;92.00
17452;DHT22;8843;48.838;9.324;2022-10-22T04:33:53;15.60;92.00
17452;DHT22;8843;48.838;9.324;2022-10-22T04:36:21;15.60;92.00
17452;DHT22;8843;48.838;9.324;2022-10-22T04:38:52;15.60;92.00
17452;DHT22;8843;48.838;9.324;2022-10-22T04:41:21;15.60;92.00
17452;DHT22;8843;48.838;9.324;2022-10-22T04:43:48;15.60;92.00
17452;DHT22;8843;48.838;9.324;2022-10-22T04:46:16;15.60;92.00
17452;DHT22;8843;48.838;9.324;2022-10-22T04:48:44;15.60;91.90
17452;DHT22;8843;48.838;9.324;2022-10-22T04:51:14;15.60;92.00
17452;DHT22;8843;48.838;9.324;2022-10-22T04:53:42;15.60;91.90
17452;DHT22;8843;48.838;9.324;2022-10-22T04:56:11;15.60;91.90
17452;DHT22;8843;48.838;9.324;2022-10-22T04:58:38;15.60;91.90
17452;DHT22;8843;48.838;9.324;2022-10-22T05:01:09;15.60;91.90
17452;DHT22;8843;48.838;9.324;2022-10-22T05:03:36;15.60;91.90
17452;DHT22;8843;48.838;9.324;2022-10-22T05:06:04;15.60;91.90
17452;DHT22;8843;48.838;9.324;2022-10-22T05:08:32;15.60;91.80
17452;DHT22;8843;48.838;9.324;2022-10-22T05:10:59;15.60;91.90
17452;DHT22;8843;48.838;9.324;2022-10-22T05:13:26;15.60;91.80
17452;DHT22;8843;48.838;9.324;2022-10-22T05:15:53;15.60;91.80
17452;DHT22;8843;48.838;9.324;2022-10-22T05:18:20;15.60;91.80
17452;DHT22;8843;48.838;9.324;2022-10-22T05:20:47;15.60;91.80
17452;DHT22;8843;48.838;9.324;2022-10-22T05:23:14;15.60;91.80
17452;DHT22;8843;48.838;9.324;2022-10-22T05:25:42;15.60;91.80
17452;DHT22;8843;48.838;9.324;2022-10-22T05:28:09;15.60;91.90
17452;DHT22;8843;48.838;9.324;2022-10-22T05:30:36;15.60;91.90
17452;DHT22;8843;48.838;9.324;2022-10-22T05:33:02;15.60;91.80
17452;DHT22;8843;48.838;9.324;2022-10-22T05:35:29;15.60;91.80
17452;DHT22;8843;48.838;9.324;2022-10-22T05:37:58;15.60;91.80
17452;DHT22;8843;48.838;9.324;2022-10-22T05:40:26;15.60;91.80
17452;DHT22;8843;48.838;9.324;2022-10-22T05:42:54;15.60;91.80
17452;DHT22;8843;48.838;9.324;2022-10-22T05:45:21;15.60;91.80
17452;DHT22;8843;48.838;9.324;2022-10-22T05:47:48;15.60;91.80
17452;DHT22;8843;48.838;9.324;2022-10-22T05:50:15;15.60;91.80
17452;DHT22;8843;48.838;9.324;2022-10-22T05:52:42;15.60;91.80
17452;DHT22;8843;48.838;9.324;2022-10-22T05:55:09;15.50;91.80
17452;DHT22;8843;48.838;9.324;2022-10-22T05:57:35;15.60;91.90
17452;DHT22;8843;48.838;9.324;2022-10-22T06:00:05;15.50;91.80
17452;DHT22;8843;48.838;9.324;2022-10-22T06:02:32;15.50;91.80
17452;DHT22;8843;48.838;9.324;2022-10-22T06:04:59;15.50;91.90
17452;DHT22;8843;48.838;9.324;2022-10-22T06:07:26;15.50;91.90
17452;DHT22;8843;48.838;9.324;2022-10-22T06:09:53;15.50;91.90
17452;DHT22;8843;48.838;9.324;2022-10-22T06:12:20;15.50;91.80
17452;DHT22;8843;48.838;9.324;2022-10-22T06:14:47;15.50;91.80
17452;DHT22;8843;48.838;9.324;2022-10-22T06:17:15;15.50;91.50
17452;DHT22;8843;48.838;9.324;2022-10-22T06:19:44;15.60;92.30
17452;DHT22;8843;48.838;9.324;2022-10-22T06:22:10;15.60;91.90
17452;DHT22;8843;48.838;9.324;2022-10-22T06:24:37;15.60;91.80
17452;DHT22;8843;48.838;9.324;2022-10-22T06:27:04;15.60;91.80
17452;DHT22;8843;48.838;9.324;2022-10-22T06:29:31;15.60;91.80
17452;DHT22;8843;48.838;9.324;2022-10-22T06:31:58;15.60;91.80
17452;DHT22;8843;48.838;9.324;2022-10-22T06:34:27;15.60;91.90
17452;DHT22;8843;48.838;9.324;2022-10-22T06:36:54;15.60;91.90
17452;DHT22;8843;48.838;9.324;2022-10-22T06:39:20;15.50;91.80
17452;DHT22;8843;48.838;9.324;2022-10-22T06:41:47;15.50;91.80
17452;DHT22;8843;48.838;9.324;2022-10-22T06:44:15;15.60;91.80
17452;DHT22;8843;48.838;9.324;2022-10-22T06:46:43;15.60;91.80
17452;DHT22;8843;48.838;9.324;2022-10-22T06:49:11;15.60;91.80
17452;DHT22;8843;48.838;9.324;2022-10-22T06:51:40;15.50;91.80
17452;DHT22;8843;48.838;9.324;2022-10-22T06:54:07;15.50;91.80
17452;DHT22;8843;48.838;9.324;2022-10-22T06:56:34;15.50;91.80
17452;DHT22;8843;48.838;9.324;2022-10-22T06:59:02;15.50;91.80
17452;DHT22;8843;48.838;9.324;2022-10-22T07:01:30;15.60;91.80
17452;DHT22;8843;48.838;9.324;2022-10-22T07:03:57;15.50;91.80
17452;DHT22;8843;48.838;9.324;2022-10-22T07:06:25;15.30;91.80
17452;DHT22;8843;48.838;9.324;2022-10-22T07:08:54;15.10;92.10
17452;DHT22;8843;48.838;9.324;2022-10-22T07:11:22;15.10;92.50
17452;DHT22;8843;48.838;9.324;2022-10-22T07:13:50;15.10;92.30
17452;DHT22;8843;48.838;9.324;2022-10-22T07:16:17;15.20;92.60
17452;DHT22;8843;48.838;9.324;2022-10-22T07:18:44;15.10;92.40
17452;DHT22;8843;48.838;9.324;2022-10-22T07:21:13;15.20;92.40
17452;DHT22;8843;48.838;9.324;2022-10-22T07:23:40;15.10;92.50
17452;DHT22;8843;48.838;9.324;2022-10-22T07:26:10;15.50;93.80
17452;DHT22;8843;48.838;9.324;2022-10-22T07:28:38;15.90;93.20
17452;DHT22;8843;48.838;9.324;2022-10-22T07:31:06;16.10;92.70
17452;DHT22;8843;48.838;9.324;2022-10-22T07:33:34;15.40;92.30
17452;DHT22;8843;48.838;9.324;2022-10-22T07:36:03;15.10;92.80
17452;DHT22;8843;48.838;9.324;2022-10-22T07:38:31;15.00;93.10
17452;DHT22;8843;48.838;9.324;2022-10-22T07:40:58;15.00;93.20
17452;DHT22;8843;48.838;9.324;2022-10-22T07:43:27;15.00;93.20
17452;DHT22;8843;48.838;9.324;2022-10-22T07:45:54;15.00;93.30
17452;DHT22;8843;48.838;9.324;2022-10-22T07:48:21;15.00;93.30
17452;DHT22;8843;48.838;9.324;2022-10-22T07:50:48;15.00;93.40
17452;DHT22;8843;48.838;9.324;2022-10-22T07:53:15;14.90;93.40
17452;DHT22;8843;48.838;9.324;2022-10-22T07:55:42;15.00;93.60
17452;DHT22;8843;48.838;9.324;2022-10-22T07:58:09;15.00;93.30
17452;DHT22;8843;48.838;9.324;2022-10-22T08:00:37;14.90;93.40
17452;DHT22;8843;48.838;9.324;2022-10-22T08:03:04;14.90;93.50
17452;DHT22;8843;48.838;9.324;2022-10-22T08:05:30;14.90;93.50
17452;DHT22;8843;48.838;9.324;2022-10-22T08:07:58;14.90;93.50
17452;DHT22;8843;48.838;9.324;2022-10-22T08:10:25;15.00;93.60
17452;DHT22;8843;48.838;9.324;2022-10-22T08:12:52;15.10;93.80
17452;DHT22;8843;48.838;9.324;2022-10-22T08:15:18;15.00;93.70
17452;DHT22;8843;48.838;9.324;2022-10-22T08:17:48;15.00;93.80
17452;DHT22;8843;48.838;9.324;2022-10-22T08:20:15;15.00;93.90
17452;DHT22;8843;48.838;9.324;2022-10-22T08:22:42;15.00;93.90
17452;DHT22;8843;48.838;9.324;2022-10-22T08:25:09;15.00;94.20
17452;DHT22;8843;48.838;9.324;2022-10-22T08:27:36;15.60;93.70
17452;DHT22;8843;48.838;9.324;2022-10-22T08:30:04;15.70;93.10
17452;DHT22;8843;48.838;9.324;2022-10-22T08:32:31;15.60;92.90
17452;DHT22;8843;48.838;9.324;2022-10-22T08:34:59;15.60;92.90
17452;DHT22;8843;48.838;9.324;2022-10-22T08:37:26;15.60;92.80
17452;DHT22;8843;48.838;9.324;2022-10-22T08:39:53;15.60;92.80
17452;DHT22;8843;48.838;9.324;2022-10-22T08:42:37;15.60;92.80
17452;DHT22;8843;48.838;9.324;2022-10-22T08:45:12;15.60;92.80
17452;DHT22;8843;48.838;9.324;2022-10-22T08:48:04;15.60;92.80
17452;DHT22;8843;48.838;9.324;2022-10-22T08:50:36;15.50;93.10
17452;DHT22;8843;48.838;9.324;2022-10-22T08:53:07;15.70;93.30
17452;DHT22;8843;48.838;9.324;2022-10-22T08:55:35;15.70;92.90
17452;DHT22;8843;48.838;9.324;2022-10-22T08:58:09;15.70;92.80
17452;DHT22;8843;48.838;9.324;2022-10-22T09:00:44;15.70;92.80
17452;DHT22;8843;48.838;9.324;2022-10-22T09:03:37;15.60;92.80
17452;DHT22;8843;48.838;9.324;2022-10-22T09:06:12;15.60;92.80
17452;DHT22;8843;48.838;9.324;2022-10-22T09:08:42;15.60;92.90
17452;DHT22;8843;48.838;9.324;2022-10-22T09:11:18;15.60;92.90
17452;DHT22;8843;48.838;9.324;2022-10-22T09:13:48;15.60;93.20
17452;DHT22;8843;48.838;9.324;2022-10-22T09:16:18;15.50;92.90
17452;DHT22;8843;48.838;9.324;2022-10-22T09:18:52;15.50;93.00
17452;DHT22;8843;48.838;9.324;2022-10-22T09:21:28;15.50;93.10
17452;DHT22;8843;48.838;9.324;2022-10-22T09:24:04;15.50;93.00
17452;DHT22;8843;48.838;9.324;2022-10-22T09:26:35;15.50;93.20
17452;DHT22;8843;48.838;9.324;2022-10-22T09:29:03;15.60;93.10
17452;DHT22;8843;48.838;9.324;2022-10-22T09:31:32;15.50;93.40
17452;DHT22;8843;48.838;9.324;2022-10-22T09:33:59;15.50;92.90
17452;DHT22;8843;48.838;9.324;2022-10-22T09:36:33;15.50;92.90
17452;DHT22;8843;48.838;9.324;2022-10-22T09:39:01;15.50;93.00
17452;DHT22;8843;48.838;9.324;2022-10-22T09:41:29;15.60;93.10
17452;DHT22;8843;48.838;9.324;2022-10-22T09:43:56;15.60;92.90
17452;DHT22;8843;48.838;9.324;2022-10-22T09:46:27;15.60;93.20
17452;DHT22;8843;48.838;9.324;2022-10-22T09:49:01;15.50;93.20
17452;DHT22;8843;48.838;9.324;2022-10-22T09:51:41;15.60;93.10
17452;DHT22;8843;48.838;9.324;2022-10-22T09:54:15;15.60;93.50
17452;DHT22;8843;48.838;9.324;2022-10-22T09:56:50;15.60;94.00
17452;DHT22;8843;48.838;9.324;2022-10-22T09:59:24;15.60;94.00
17452;DHT22;8843;48.838;9.324;2022-10-22T10:01:59;15.60;94.20
17452;DHT22;8843;48.838;9.324;2022-10-22T10:04:27;15.60;94.00
17452;DHT22;8843;48.838;9.324;2022-10-22T10:07:00;15.70;93.90
17452;DHT22;8843;48.838;9.324;2022-10-22T10:09:35;15.70;94.40
17452;DHT22;8843;48.838;9.324;2022-10-22T10:12:13;15.70;94.30
17452;DHT22;8843;48.838;9.324;2022-10-22T10:14:50;15.90;96.30
17452;DHT22;8843;48.838;9.324;2022-10-22T10:17:26;16.10;97.30
17452;DHT22;8843;48.838;9.324;2022-10-22T10:20:07;16.20;97.30
17452;DHT22;8843;48.838;9.324;2022-10-22T10:22:55;16.40;98.90
17452;DHT22;8843;48.838;9.324;2022-10-22T10:25:40;16.60;98.70
17452;DHT22;8843;48.838;9.324;2022-10-22T10:28:38;16.90;98.90
17452;DHT22;8843;48.838;9.324;2022-10-22T10:31:19;17.20;98.50
17452;DHT22;8843;48.838;9.324;2022-10-22T10:33:53;17.40;98.60
17452;DHT22;8843;48.838;9.324;2022-10-22T10:36:26;17.50;98.40
17452;DHT22;8843;48.838;9.324;2022-10-22T10:39:01;17.80;98.40
17452;DHT22;8843;48.838;9.324;2022-10-22T10:41:38;18.00;98.70
17452;DHT22;8843;48.838;9.324;2022-10-22T10:44:34;18.40;97.80
17452;DHT22;8843;48.838;9.324;2022-10-22T10:47:12;18.50;94.90
17452;DHT22;8843;48.838;9.324;2022-10-22T10:49:42;18.50;95.20
17452;DHT22;8843;48.838;9.324;2022-10-22T10:52:14;18.50;95.10
17452;DHT22;8843;48.838;9.324;2022-10-22T10:54:51;18.30;93.80
17452;DHT22;8843;48.838;9.324;2022-10-22T10:57:27;18.40;94.40
17452;DHT22;8843;48.838;9.324;2022-10-22T11:00:03;18.40;94.20
17452;DHT22;8843;48.838;9.324;2022-10-22T11:05:38;18.40;93.30
17452;DHT22;8843;48.838;9.324;2022-10-22T11:08:10;18.30;93.50
17452;DHT22;8843;48.838;9.324;2022-10-22T11:10:44;18.30;93.60
17452;DHT22;8843;48.838;9.324;2022-10-22T11:13:16;18.40;94.10
17452;DHT22;8843;48.838;9.324;2022-10-22T11:15:47;18.40;93.50
17452;DHT22;8843;48.838;9.324;2022-10-22T11:18:21;18.50;94.80
17452;DHT22;8843;48.838;9.324;2022-10-22T11:20:55;18.90;94.50
17452;DHT22;8843;48.838;9.324;2022-10-22T11:23:31;18.90;90.20
17452;DHT22;8843;48.838;9.324;2022-10-22T11:26:09;19.10;93.60
17452;DHT22;8843;48.838;9.324;2022-10-22T11:28:48;19.30;93.70
17452;DHT22;8843;48.838;9.324;2022-10-22T11:31:17;19.40;93.10
17452;DHT22;8843;48.838;9.324;2022-10-22T11:33:49;19.40;92.80
17452;DHT22;8843;48.838;9.324;2022-10-22T11:36:21;19.60;93.70
17452;DHT22;8843;48.838;9.324;2022-10-22T11:38:48;19.60;92.70
17452;DHT22;8843;48.838;9.324;2022-10-22T11:41:22;20.00;93.30
17452;DHT22;8843;48.838;9.324;2022-10-22T11:43:57;19.90;91.40
17452;DHT22;8843;48.838;9.324;2022-10-22T11:46:38;20.00;91.70
17452;DHT22;8843;48.838;9.324;2022-10-22T11:49:18;20.00;91.60
17452;DHT22;8843;48.838;9.324;2022-10-22T11:51:47;20.30;91.70
17452;DHT22;8843;48.838;9.324;2022-10-22T11:54:38;20.50;91.40
17452;DHT22;8843;48.838;9.324;2022-10-22T11:57:20;20.70;91.70
17452;DHT22;8843;48.838;9.324;2022-10-22T11:59:51;20.90;91.10
17452;DHT22;8843;48.838;9.324;2022-10-22T12:02:46;21.10;90.80
17452;DHT22;8843;48.838;9.324;2022-10-22T12:05:35;21.10;91.10
17452;DHT22;8843;48.838;9.324;2022-10-22T12:08:24;21.30;86.90
17452;DHT22;8843;48.838;9.324;2022-10-22T12:11:03;21.20;88.90
17452;DHT22;8843;48.838;9.324;2022-10-22T12:13:49;21.30;88.00
17452;DHT22;8843;48.838;9.324;2022-10-22T12:16:18;21.30;89.50
17452;DHT22;8843;48.838;9.324;2022-10-22T12:18:48;21.30;87.40
17452;DHT22;8843;48.838;9.324;2022-10-22T12:21:19;21.40;86.90
17452;DHT22;8843;48.838;9.324;2022-10-22T12:23:46;21.30;88.00
17452;DHT22;8843;48.838;9.324;2022-10-22T12:26:24;21.20;86.70
17452;DHT22;8843;48.838;9.324;2022-10-22T12:28:57;21.10;87.00
17452;DHT22;8843;48.838;9.324;2022-10-22T12:31:24;21.00;87.30
17452;DHT22;8843;48.838;9.324;2022-10-22T12:33:58;21.00;87.40
17452;DHT22;8843;48.838;9.324;2022-10-22T12:36:25;20.80;86.50
17452;DHT22;8843;48.838;9.324;2022-10-22T12:38:53;20.70;88.00
17452;DHT22;8843;48.838;9.324;2022-10-22T12:41:20;20.70;87.70
17452;DHT22;8843;48.838;9.324;2022-10-22T12:43:47;20.80;88.00
17452;DHT22;8843;48.838;9.324;2022-10-22T12:46:16;20.80;86.40
17452;DHT22;8843;48.838;9.324;2022-10-22T12:48:44;20.80;84.50
17452;DHT22;8843;48.838;9.324;2022-10-22T12:51:15;20.70;86.60
17452;DHT22;8843;48.838;9.324;2022-10-22T12:53:46;20.50;85.10
17452;DHT22;8843;48.838;9.324;2022-10-22T12:56:15;20.30;84.40
17452;DHT22;8843;48.838;9.324;2022-10-22T12:58:45;20.40;85.10
17452;DHT22;8843;48.838;9.324;2022-10-22T13:01:16;20.30;85.20
17452;DHT22;8843;48.838;9.324;2022-10-22T13:03:44;20.20;87.30
17452;DHT22;8843;48.838;9.324;2022-10-22T13:06:19;20.30;87.30
17452;DHT22;8843;48.838;9.324;2022-10-22T13:09:10;20.40;88.60
17452;DHT22;8843;48.838;9.324;2022-10-22T13:11:40;20.50;86.80
17452;DHT22;8843;48.838;9.324;2022-10-22T13:14:18;20.70;86.50
17452;DHT22;8843;48.838;9.324;2022-10-22T13:17:06;20.90;85.90
17452;DHT22;8843;48.838;9.324;2022-10-22T13:19:48;21.00;83.20
17452;DHT22;8843;48.838;9.324;2022-10-22T13:22:39;20.90;82.90
17452;DHT22;8843;48.838;9.324;2022-10-22T13:25:28;20.90;84.00
17452;DHT22;8843;48.838;9.324;2022-10-22T13:27:57;21.00;84.30
17452;DHT22;8843;48.838;9.324;2022-10-22T13:30:26;21.00;84.40
17452;DHT22;8843;48.838;9.324;2022-10-22T13:32:57;21.00;83.50
17452;DHT22;8843;48.838;9.324;2022-10-22T13:35:26;21.00;82.80
17452;DHT22;8843;48.838;9.324;2022-10-22T13:37:54;21.00;82.00
17452;DHT22;8843;48.838;9.324;2022-10-22T13:40:21;20.90;81.50
17452;DHT22;8843;48.838;9.324;2022-10-22T13:42:47;20.90;81.10
17452;DHT22;8843;48.838;9.324;2022-10-22T13:45:15;20.90;81.80
17452;DHT22;8843;48.838;9.324;2022-10-22T13:47:45;20.90;81.40
17452;DHT22;8843;48.838;9.324;2022-10-22T13:50:16;20.80;81.30
17452;DHT22;8843;48.838;9.324;2022-10-22T13:52:45;20.70;81.90
17452;DHT22;8843;48.838;9.324;2022-10-22T13:55:15;20.70;82.60
17452;DHT22;8843;48.838;9.324;2022-10-22T13:57:42;20.60;82.50
17452;DHT22;8843;48.838;9.324;2022-10-22T14:00:12;20.50;82.40
17452;DHT22;8843;48.838;9.324;2022-10-22T14:02:39;20.40;80.20
17452;DHT22;8843;48.838;9.324;2022-10-22T14:05:07;20.30;81.50
17452;DHT22;8843;48.838;9.324;2022-10-22T14:07:38;20.30;81.30
17452;DHT22;8843;48.838;9.324;2022-10-22T14:10:13;20.20;81.50
17452;DHT22;8843;48.838;9.324;2022-10-22T14:12:40;20.20;82.40
17452;DHT22;8843;48.838;9.324;2022-10-22T14:15:09;20.10;82.60
17452;DHT22;8843;48.838;9.324;2022-10-22T14:17:37;20.00;82.60
17452;DHT22;8843;48.838;9.324;2022-10-22T14:20:05;20.10;84.20
17452;DHT22;8843;48.838;9.324;2022-10-22T14:22:32;20.00;83.40
17452;DHT22;8843;48.838;9.324;2022-10-22T14:25:00;19.80;83.00
17452;DHT22;8843;48.838;9.324;2022-10-22T14:27:27;19.80;82.00
17452;DHT22;8843;48.838;9.324;2022-10-22T14:29:54;19.80;83.00
17452;DHT22;8843;48.838;9.324;2022-10-22T14:32:21;19.80;82.30
17452;DHT22;8843;48.838;9.324;2022-10-22T14:34:48;19.70;83.10
17452;DHT22;8843;48.838;9.324;2022-10-22T14:37:16;19.70;82.70
17452;DHT22;8843;48.838;9.324;2022-10-22T14:39:44;19.70;82.60
17452;DHT22;8843;48.838;9.324;2022-10-22T14:42:17;19.70;83.10
17452;DHT22;8843;48.838;9.324;2022-10-22T14:44:45;19.60;81.90
17452;DHT22;8843;48.838;9.324;2022-10-22T14:47:12;19.70;83.30
17452;DHT22;8843;48.838;9.324;2022-10-22T14:49:39;19.60;82.90
17452;DHT22;8843;48.838;9.324;2022-10-22T14:52:06;19.60;82.80
17452;DHT22;8843;48.838;9.324;2022-10-22T14:54:33;19.50;82.80
17452;DHT22;8843;48.838;9.324;2022-10-22T14:57:00;19.50;82.70
17452;DHT22;8843;48.838;9.324;2022-10-22T14:59:29;19.50;83.00
17452;DHT22;8843;48.838;9.324;2022-10-22T15:01:56;19.70;85.20
17452;DHT22;8843;48.838;9.324;2022-10-22T15:04:23;19.70;84.60
17452;DHT22;8843;48.838;9.324;2022-10-22T15:06:51;19.80;85.00
17452;DHT22;8843;48.838;9.324;2022-10-22T15:09:22;19.70;83.80
17452;DHT22;8843;48.838;9.324;2022-10-22T15:11:49;19.50;84.10
17452;DHT22;8843;48.838;9.324;2022-10-22T15:14:16;19.60;85.30
17452;DHT22;8843;48.838;9.324;2022-10-22T15:16:44;19.70;85.20
17452;DHT22;8843;48.838;9.324;2022-10-22T15:19:11;19.70;85.60
17452;DHT22;8843;48.838;9.324;2022-10-22T15:21:38;19.60;84.40
17452;DHT22;8843;48.838;9.324;2022-10-22T15:24:05;19.40;84.00
17452;DHT22;8843;48.838;9.324;2022-10-22T15:26:32;19.20;83.80
17452;DHT22;8843;48.838;9.324;2022-10-22T15:29:01;19.10;84.10
17452;DHT22;8843;48.838;9.324;2022-10-22T15:31:46;19.00;83.60
17452;DHT22;8843;48.838;9.324;2022-10-22T15:34:17;18.90;84.40
17452;DHT22;8843;48.838;9.324;2022-10-22T15:36:44;18.70;84.80
17452;DHT22;8843;48.838;9.324;2022-10-22T15:39:11;18.80;84.30
17452;DHT22;8843;48.838;9.324;2022-10-22T15:41:38;18.70;84.10
17452;DHT22;8843;48.838;9.324;2022-10-22T15:44:05;18.70;85.70
17452;DHT22;8843;48.838;9.324;2022-10-22T15:46:33;18.60;86.10
17452;DHT22;8843;48.838;9.324;2022-10-22T15:49:02;18.60;85.70
17452;DHT22;8843;48.838;9.324;2022-10-22T15:51:29;18.50;85.70
17452;DHT22;8843;48.838;9.324;2022-10-22T15:53:58;18.50;85.80
17452;DHT22;8843;48.838;9.324;2022-10-22T15:56:26;18.40;85.60
17452;DHT22;8843;48.838;9.324;2022-10-22T15:58:55;18.30;85.70
17452;DHT22;8843;48.838;9.324;2022-10-22T16:01:23;18.30;86.10
17452;DHT22;8843;48.838;9.324;2022-10-22T16:03:51;18.20;86.10
17452;DHT22;8843;48.838;9.324;2022-10-22T16:06:26;18.20;86.20
17452;DHT22;8843;48.838;9.324;2022-10-22T16:08:53;18.10;86.30
17452;DHT22;8843;48.838;9.324;2022-10-22T16:11:22;18.20;86.60